sensor_id;sensor_type;location;lat;lon;timestamp;P1;durP1;ratioP1;P2;durP2;ratioP2
14603;SDS011;7388;51.078;13.740;2023-10-08T00:01:49;12.03;;;3.13;;
14603;SDS011;7388;51.078;13.740;2023-10-08T00:04:16;21.47;;;3.20;;
14603;SDS011;7388;51.078;13.740;2023-10-08T00:06:45;19.50;;;2.67;;
14603;SDS011;7388;51.078;13.740;2023-10-08T00:09:11;18.47;;;2.27;;
14603;SDS011;7388;51.078;13.740;2023-10-08T00:11:39;17.93;;;2.43;;
14603;SDS011;7388;51.078;13.740;2023-10-08T00:14:06;12.57;;;3.10;;
14603;SDS011;7388;51.078;13.740;2023-10-08T00:16:35;12.00;;;2.13;;
14603;SDS011;7388;51.078;13.740;2023-10-08T00:19:05;16.60;;;2.47;;
14603;SDS011;7388;51.078;13.740;2023-10-08T00:21:38;15.90;;;2.40;;
14603;SDS011;7388;51.078;13.740;2023-10-08T00:24:05;21.63;;;2.90;;
14603;SDS011;7388;51.078;13.740;2023-10-08T00:26:32;15.23;;;2.60;;
14603;SDS011;7388;51.078;13.740;2023-10-08T00:29:03;20.07;;;2.80;;
14603;SDS011;7388;51.078;13.740;2023-10-08T00:31:48;12.20;;;2.20;;
14603;SDS011;7388;51.078;13.740;2023-10-08T00:34:17;18.13;;;2.50;;
14603;SDS011;7388;51.078;13.740;2023-10-08T00:36:45;17.60;;;3.40;;
14603;SDS011;7388;51.078;13.740;2023-10-08T00:39:13;13.00;;;2.00;;
14603;SDS011;7388;51.078;13.740;2023-10-08T00:41:43;14.20;;;2.30;;
14603;SDS011;7388;51.078;13.740;2023-10-08T00:44:10;21.53;;;4.10;;
14603;SDS011;7388;51.078;13.740;2023-10-08T00:46:46;15.77;;;2.27;;
14603;SDS011;7388;51.078;13.740;2023-10-08T00:49:13;13.73;;;2.80;;
14603;SDS011;7388;51.078;13.740;2023-10-08T00:51:58;14.83;;;2.70;;
14603;SDS011;7388;51.078;13.740;2023-10-08T00:54:45;14.40;;;2.43;;
14603;SDS011;7388;51.078;13.740;2023-10-08T00:57:31;16.50;;;3.20;;
14603;SDS011;7388;51.078;13.740;2023-10-08T01:00:05;15.17;;;1.97;;
14603;SDS011;7388;51.078;13.740;2023-10-08T01:02:37;16.53;;;3.00;;
14603;SDS011;7388;51.078;13.740;2023-10-08T01:05:14;26.53;;;2.63;;
14603;SDS011;7388;51.078;13.740;2023-10-08T01:07:44;16.37;;;2.90;;
14603;SDS011;7388;51.078;13.740;2023-10-08T01:10:14;14.63;;;1.90;;
14603;SDS011;7388;51.078;13.740;2023-10-08T01:12:44;17.00;;;2.83;;
14603;SDS011;7388;51.078;13.740;2023-10-08T01:15:29;19.87;;;2.57;;
14603;SDS011;7388;51.078;13.740;2023-10-08T01:17:56;14.70;;;2.40;;
14603;SDS011;7388;51.078;13.740;2023-10-08T01:20:28;12.50;;;2.67;;
14603;SDS011;7388;51.078;13.740;2023-10-08T01:23:05;12.67;;;2.47;;
14603;SDS011;7388;51.078;13.740;2023-10-08T01:25:38;16.47;;;2.60;;
14603;SDS011;7388;51.078;13.740;2023-10-08T01:28:05;16.90;;;2.47;;
14603;SDS011;7388;51.078;13.740;2023-10-08T01:30:53;14.30;;;2.77;;
14603;SDS011;7388;51.078;13.740;2023-10-08T01:33:22;13.27;;;3.40;;
14603;SDS011;7388;51.078;13.740;2023-10-08T01:35:51;18.13;;;2.53;;
14603;SDS011;7388;51.078;13.740;2023-10-08T01:38:17;15.43;;;2.90;;
14603;SDS011;7388;51.078;13.740;2023-10-08T01:40:48;14.40;;;2.80;;
14603;SDS011;7388;51.078;13.740;2023-10-08T01:43:16;11.87;;;1.63;;
14603;SDS011;7388;51.078;13.740;2023-10-08T01:45:43;12.60;;;2.87;;
14603;SDS011;7388;51.078;13.740;2023-10-08T01:48:13;11.27;;;1.73;;
14603;SDS011;7388;51.078;13.740;2023-10-08T01:50:40;10.67;;;1.63;;
14603;SDS011;7388;51.078;13.740;2023-10-08T01:53:10;18.03;;;2.33;;
14603;SDS011;7388;51.078;13.740;2023-10-08T01:55:37;13.40;;;1.67;;
14603;SDS011;7388;51.078;13.740;2023-10-08T01:58:17;12.97;;;1.57;;
14603;SDS011;7388;51.078;13.740;2023-10-08T02:00:47;14.47;;;1.77;;
14603;SDS011;7388;51.078;13.740;2023-10-08T02:03:14;30.63;;;3.40;;
14603;SDS011;7388;51.078;13.740;2023-10-08T02:05:44;12.57;;;1.57;;
14603;SDS011;7388;51.078;13.740;2023-10-08T02:08:11;10.10;;;1.20;;
14603;SDS011;7388;51.078;13.740;2023-10-08T02:10:38;13.43;;;1.73;;
14603;SDS011;7388;51.078;13.740;2023-10-08T02:13:05;18.47;;;2.13;;
14603;SDS011;7388;51.078;13.740;2023-10-08T02:15:33;11.30;;;1.30;;
14603;SDS011;7388;51.078;13.740;2023-10-08T02:18:00;17.35;;;2.00;;
14603;SDS011;7388;51.078;13.740;2023-10-08T02:20:27;15.80;;;1.77;;
14603;SDS011;7388;51.078;13.740;2023-10-08T02:22:53;13.13;;;1.60;;
14603;SDS011;7388;51.078;13.740;2023-10-08T02:25:19;17.33;;;1.83;;
14603;SDS011;7388;51.078;13.740;2023-10-08T02:27:45;14.77;;;1.63;;
14603;SDS011;7388;51.078;13.740;2023-10-08T02:30:13;10.00;;;1.33;;
14603;SDS011;7388;51.078;13.740;2023-10-08T02:32:39;9.43;;;1.23;;
14603;SDS011;7388;51.078;13.740;2023-10-08T02:35:08;12.95;;;1.60;;
14603;SDS011;7388;51.078;13.740;2023-10-08T02:37:38;14.00;;;1.63;;
14603;SDS011;7388;51.078;13.740;2023-10-08T02:40:10;11.95;;;1.35;;
14603;SDS011;7388;51.078;13.740;2023-10-08T02:42:44;15.43;;;1.53;;
14603;SDS011;7388;51.078;13.740;2023-10-08T02:45:13;13.93;;;1.43;;
14603;SDS011;7388;51.078;13.740;2023-10-08T02:47:43;15.07;;;1.67;;
14603;SDS011;7388;51.078;13.740;2023-10-08T02:50:12;17.43;;;1.83;;
14603;SDS011;7388;51.078;13.740;2023-10-08T02:52:42;8.83;;;1.23;;
14603;SDS011;7388;51.078;13.740;2023-10-08T02:55:10;13.00;;;1.60;;
14603;SDS011;7388;51.078;13.740;2023-10-08T02:57:50;11.60;;;1.30;;
14603;SDS011;7388;51.078;13.740;2023-10-08T03:00:16;13.45;;;1.75;;
14603;SDS011;7388;51.078;13.740;2023-10-08T03:02:45;12.32;;;1.35;;
14603;SDS011;7388;51.078;13.740;2023-10-08T03:05:11;12.30;;;1.63;;
14603;SDS011;7388;51.078;13.740;2023-10-08T03:07:41;15.80;;;1.73;;
14603;SDS011;7388;51.078;13.740;2023-10-08T03:10:07;16.30;;;1.75;;
14603;SDS011;7388;51.078;13.740;2023-10-08T03:12:56;11.80;;;1.33;;
14603;SDS011;7388;51.078;13.740;2023-10-08T03:15:28;20.33;;;2.17;;
14603;SDS011;7388;51.078;13.740;2023-10-08T03:17:56;9.68;;;1.20;;
14603;SDS011;7388;51.078;13.740;2023-10-08T03:20:22;17.70;;;2.10;;
14603;SDS011;7388;51.078;13.740;2023-10-08T03:23:08;22.70;;;2.40;;
14603;SDS011;7388;51.078;13.740;2023-10-08T03:25:49;1.00;;;0.40;;
14603;SDS011;7388;51.078;13.740;2023-10-08T03:28:46;1.00;;;0.40;;
14603;SDS011;7388;51.078;13.740;2023-10-08T03:31:22;1.00;;;0.40;;
14603;SDS011;7388;51.078;13.740;2023-10-08T03:34:08;1.10;;;0.60;;
14603;SDS011;7388;51.078;13.740;2023-10-08T03:36:37;1.52;;;0.95;;
14603;SDS011;7388;51.078;13.740;2023-10-08T03:39:12;1.65;;;0.95;;
14603;SDS011;7388;51.078;13.740;2023-10-08T03:41:42;1.02;;;0.65;;
14603;SDS011;7388;51.078;13.740;2023-10-08T03:44:24;2.13;;;1.05;;
14603;SDS011;7388;51.078;13.740;2023-10-08T03:46:50;4.50;;;1.23;;
14603;SDS011;7388;51.078;13.740;2023-10-08T03:49:17;7.03;;;1.67;;
14603;SDS011;7388;51.078;13.740;2023-10-08T03:51:46;5.95;;;1.15;;
14603;SDS011;7388;51.078;13.740;2023-10-08T03:54:13;12.02;;;1.85;;
14603;SDS011;7388;51.078;13.740;2023-10-08T03:56:40;14.52;;;1.80;;
14603;SDS011;7388;51.078;13.740;2023-10-08T03:59:14;15.98;;;1.60;;
14603;SDS011;7388;51.078;13.740;2023-10-08T04:01:45;13.88;;;1.63;;
14603;SDS011;7388;51.078;13.740;2023-10-08T04:04:14;13.18;;;1.67;;
14603;SDS011;7388;51.078;13.740;2023-10-08T04:06:41;15.43;;;1.65;;
14603;SDS011;7388;51.078;13.740;2023-10-08T04:09:16;15.15;;;1.70;;
14603;SDS011;7388;51.078;13.740;2023-10-08T04:11:45;15.95;;;1.75;;
14603;SDS011;7388;51.078;13.740;2023-10-08T04:14:14;18.67;;;2.08;;
14603;SDS011;7388;51.078;13.740;2023-10-08T04:16:44;25.15;;;2.25;;
14603;SDS011;7388;51.078;13.740;2023-10-08T04:19:11;10.82;;;1.35;;
14603;SDS011;7388;51.078;13.740;2023-10-08T04:21:37;13.88;;;1.50;;
14603;SDS011;7388;51.078;13.740;2023-10-08T04:24:07;16.92;;;2.15;;
14603;SDS011;7388;51.078;13.740;2023-10-08T04:26:34;16.87;;;1.57;;
14603;SDS011;7388;51.078;13.740;2023-10-08T04:29:00;21.00;;;1.92;;
14603;SDS011;7388;51.078;13.740;2023-10-08T04:31:28;14.73;;;1.42;;
14603;SDS011;7388;51.078;13.740;2023-10-08T04:34:23;17.85;;;1.67;;
14603;SDS011;7388;51.078;13.740;2023-10-08T04:36:51;16.75;;;1.63;;
14603;SDS011;7388;51.078;13.740;2023-10-08T04:39:26;16.27;;;1.70;;
14603;SDS011;7388;51.078;13.740;2023-10-08T04:42:01;15.45;;;1.60;;
14603;SDS011;7388;51.078;13.740;2023-10-08T04:44:35;16.80;;;1.73;;
14603;SDS011;7388;51.078;13.740;2023-10-08T04:47:03;11.88;;;1.30;;
14603;SDS011;7388;51.078;13.740;2023-10-08T04:49:30;20.52;;;1.85;;
14603;SDS011;7388;51.078;13.740;2023-10-08T04:51:59;17.00;;;1.77;;
14603;SDS011;7388;51.078;13.740;2023-10-08T04:54:30;16.88;;;1.63;;
14603;SDS011;7388;51.078;13.740;2023-10-08T04:56:59;13.80;;;1.40;;
14603;SDS011;7388;51.078;13.740;2023-10-08T04:59:29;14.38;;;1.55;;
14603;SDS011;7388;51.078;13.740;2023-10-08T05:02:02;21.65;;;2.13;;
14603;SDS011;7388;51.078;13.740;2023-10-08T05:04:48;18.63;;;1.92;;
14603;SDS011;7388;51.078;13.740;2023-10-08T05:07:20;14.82;;;1.83;;
14603;SDS011;7388;51.078;13.740;2023-10-08T05:09:47;17.35;;;1.75;;
14603;SDS011;7388;51.078;13.740;2023-10-08T05:12:28;12.30;;;1.52;;
14603;SDS011;7388;51.078;13.740;2023-10-08T05:14:57;11.18;;;1.40;;
14603;SDS011;7388;51.078;13.740;2023-10-08T05:17:39;17.98;;;1.67;;
14603;SDS011;7388;51.078;13.740;2023-10-08T05:20:14;12.93;;;1.50;;
14603;SDS011;7388;51.078;13.740;2023-10-08T05:23:06;14.82;;;1.63;;
14603;SDS011;7388;51.078;13.740;2023-10-08T05:25:46;8.20;;;1.02;;
14603;SDS011;7388;51.078;13.740;2023-10-08T05:28:31;1.63;;;1.00;;
14603;SDS011;7388;51.078;13.740;2023-10-08T05:31:07;1.10;;;0.70;;
14603;SDS011;7388;51.078;13.740;2023-10-08T05:33:36;1.55;;;1.20;;
14603;SDS011;7388;51.078;13.740;2023-10-08T05:36:34;11.38;;;1.73;;
14603;SDS011;7388;51.078;13.740;2023-10-08T05:39:20;10.38;;;1.63;;
14603;SDS011;7388;51.078;13.740;2023-10-08T05:41:49;14.70;;;1.85;;
14603;SDS011;7388;51.078;13.740;2023-10-08T05:44:30;14.05;;;1.60;;
14603;SDS011;7388;51.078;13.740;2023-10-08T05:47:06;11.43;;;1.70;;
14603;SDS011;7388;51.078;13.740;2023-10-08T05:49:51;13.50;;;2.10;;
14603;SDS011;7388;51.078;13.740;2023-10-08T05:52:40;15.13;;;1.88;;
14603;SDS011;7388;51.078;13.740;2023-10-08T05:55:16;13.48;;;2.22;;
14603;SDS011;7388;51.078;13.740;2023-10-08T05:57:48;13.20;;;1.67;;
14603;SDS011;7388;51.078;13.740;2023-10-08T06:00:17;11.50;;;1.52;;
14603;SDS011;7388;51.078;13.740;2023-10-08T06:03:03;11.55;;;1.65;;
14603;SDS011;7388;51.078;13.740;2023-10-08T06:05:35;11.98;;;1.75;;
14603;SDS011;7388;51.078;13.740;2023-10-08T06:08:10;12.65;;;1.70;;
14603;SDS011;7388;51.078;13.740;2023-10-08T06:10:38;11.43;;;1.55;;
14603;SDS011;7388;51.078;13.740;2023-10-08T06:13:05;22.17;;;2.97;;
14603;SDS011;7388;51.078;13.740;2023-10-08T06:18:34;10.50;;;1.30;;
14603;SDS011;7388;51.078;13.740;2023-10-08T06:21:03;12.77;;;1.85;;
14603;SDS011;7388;51.078;13.740;2023-10-08T06:23:37;19.95;;;2.75;;
14603;SDS011;7388;51.078;13.740;2023-10-08T06:26:04;12.85;;;1.60;;
14603;SDS011;7388;51.078;13.740;2023-10-08T06:28:39;12.82;;;1.63;;
14603;SDS011;7388;51.078;13.740;2023-10-08T06:31:07;14.13;;;1.83;;
14603;SDS011;7388;51.078;13.740;2023-10-08T06:33:41;12.82;;;1.73;;
14603;SDS011;7388;51.078;13.740;2023-10-08T06:36:09;15.13;;;1.90;;
14603;SDS011;7388;51.078;13.740;2023-10-08T06:38:41;12.38;;;1.40;;
14603;SDS011;7388;51.078;13.740;2023-10-08T06:41:09;15.75;;;2.03;;
14603;SDS011;7388;51.078;13.740;2023-10-08T06:43:38;13.50;;;1.75;;
14603;SDS011;7388;51.078;13.740;2023-10-08T06:46:07;14.57;;;1.92;;
14603;SDS011;7388;51.078;13.740;2023-10-08T06:48:33;16.03;;;2.67;;
14603;SDS011;7388;51.078;13.740;2023-10-08T06:51:02;19.65;;;2.70;;
14603;SDS011;7388;51.078;13.740;2023-10-08T06:53:38;13.00;;;1.52;;
14603;SDS011;7388;51.078;13.740;2023-10-08T06:56:10;12.40;;;1.52;;
14603;SDS011;7388;51.078;13.740;2023-10-08T06:58:37;15.23;;;2.00;;
14603;SDS011;7388;51.078;13.740;2023-10-08T07:01:03;14.00;;;1.75;;
14603;SDS011;7388;51.078;13.740;2023-10-08T07:03:30;13.23;;;1.70;;
14603;SDS011;7388;51.078;13.740;2023-10-08T07:05:58;13.18;;;1.67;;
14603;SDS011;7388;51.078;13.740;2023-10-08T07:08:28;13.82;;;1.95;;
14603;SDS011;7388;51.078;13.740;2023-10-08T07:11:02;13.13;;;1.67;;
14603;SDS011;7388;51.078;13.740;2023-10-08T07:13:36;10.88;;;1.48;;
14603;SDS011;7388;51.078;13.740;2023-10-08T07:16:04;12.50;;;1.77;;
14603;SDS011;7388;51.078;13.740;2023-10-08T07:18:36;10.93;;;1.45;;
14603;SDS011;7388;51.078;13.740;2023-10-08T07:21:02;13.55;;;1.60;;
14603;SDS011;7388;51.078;13.740;2023-10-08T07:23:30;13.52;;;2.17;;
14603;SDS011;7388;51.078;13.740;2023-10-08T07:26:00;11.95;;;1.50;;
14603;SDS011;7388;51.078;13.740;2023-10-08T07:28:42;17.73;;;2.53;;
14603;SDS011;7388;51.078;13.740;2023-10-08T07:31:21;8.75;;;1.35;;
14603;SDS011;7388;51.078;13.740;2023-10-08T07:33:51;14.32;;;2.15;;
14603;SDS011;7388;51.078;13.740;2023-10-08T07:36:24;12.20;;;1.88;;
14603;SDS011;7388;51.078;13.740;2023-10-08T07:38:52;14.63;;;2.13;;
14603;SDS011;7388;51.078;13.740;2023-10-08T07:41:18;14.52;;;2.03;;
14603;SDS011;7388;51.078;13.740;2023-10-08T07:43:48;9.07;;;1.65;;
14603;SDS011;7388;51.078;13.740;2023-10-08T07:46:26;11.00;;;2.03;;
14603;SDS011;7388;51.078;13.740;2023-10-08T07:48:56;12.93;;;1.92;;
14603;SDS011;7388;51.078;13.740;2023-10-08T07:51:23;15.10;;;1.75;;
14603;SDS011;7388;51.078;13.740;2023-10-08T07:53:50;13.80;;;1.75;;
14603;SDS011;7388;51.078;13.740;2023-10-08T07:56:25;11.73;;;1.55;;
14603;SDS011;7388;51.078;13.740;2023-10-08T07:58:54;12.75;;;1.73;;
14603;SDS011;7388;51.078;13.740;2023-10-08T08:01:23;13.77;;;1.58;;
14603;SDS011;7388;51.078;13.740;2023-10-08T08:03:50;15.45;;;1.80;;
14603;SDS011;7388;51.078;13.740;2023-10-08T08:06:16;12.38;;;1.77;;
14603;SDS011;7388;51.078;13.740;2023-10-08T08:08:42;14.18;;;1.67;;
14603;SDS011;7388;51.078;13.740;2023-10-08T08:11:09;18.38;;;2.67;;
14603;SDS011;7388;51.078;13.740;2023-10-08T08:13:42;14.10;;;1.90;;
14603;SDS011;7388;51.078;13.740;2023-10-08T08:16:09;13.68;;;2.15;;
14603;SDS011;7388;51.078;13.740;2023-10-08T08:18:41;11.93;;;1.50;;
14603;SDS011;7388;51.078;13.740;2023-10-08T08:21:11;7.38;;;1.17;;
14603;SDS011;7388;51.078;13.740;2023-10-08T08:23:41;10.68;;;1.65;;
14603;SDS011;7388;51.078;13.740;2023-10-08T08:26:13;12.23;;;2.00;;
14603;SDS011;7388;51.078;13.740;2023-10-08T08:28:51;16.52;;;1.98;;
14603;SDS011;7388;51.078;13.740;2023-10-08T08:31:19;14.07;;;1.90;;
14603;SDS011;7388;51.078;13.740;2023-10-08T08:33:45;12.38;;;1.80;;
14603;SDS011;7388;51.078;13.740;2023-10-08T08:36:40;14.90;;;2.20;;
14603;SDS011;7388;51.078;13.740;2023-10-08T08:39:11;13.70;;;1.75;;
14603;SDS011;7388;51.078;13.740;2023-10-08T08:41:49;12.38;;;1.52;;
14603;SDS011;7388;51.078;13.740;2023-10-08T08:44:18;13.70;;;1.80;;
14603;SDS011;7388;51.078;13.740;2023-10-08T08:46:45;13.25;;;1.50;;
14603;SDS011;7388;51.078;13.740;2023-10-08T08:49:12;16.67;;;1.83;;
14603;SDS011;7388;51.078;13.740;2023-10-08T08:51:39;15.02;;;1.67;;
14603;SDS011;7388;51.078;13.740;2023-10-08T08:54:06;11.65;;;1.33;;
14603;SDS011;7388;51.078;13.740;2023-10-08T08:56:35;13.53;;;2.43;;
14603;SDS011;7388;51.078;13.740;2023-10-08T08:59:06;13.20;;;2.05;;
14603;SDS011;7388;51.078;13.740;2023-10-08T09:01:37;13.40;;;1.70;;
14603;SDS011;7388;51.078;13.740;2023-10-08T09:04:03;8.18;;;1.13;;
14603;SDS011;7388;51.078;13.740;2023-10-08T09:06:36;14.05;;;1.90;;
14603;SDS011;7388;51.078;13.740;2023-10-08T09:09:06;22.45;;;2.45;;
14603;SDS011;7388;51.078;13.740;2023-10-08T09:11:50;14.15;;;1.65;;
14603;SDS011;7388;51.078;13.740;2023-10-08T09:14:21;11.20;;;1.35;;
14603;SDS011;7388;51.078;13.740;2023-10-08T09:16:48;12.82;;;1.73;;
14603;SDS011;7388;51.078;13.740;2023-10-08T09:19:15;14.55;;;2.58;;
14603;SDS011;7388;51.078;13.740;2023-10-08T09:22:05;10.00;;;1.33;;
14603;SDS011;7388;51.078;13.740;2023-10-08T09:24:30;11.23;;;1.40;;
14603;SDS011;7388;51.078;13.740;2023-10-08T09:26:58;11.63;;;1.75;;
14603;SDS011;7388;51.078;13.740;2023-10-08T09:29:25;15.02;;;2.33;;
14603;SDS011;7388;51.078;13.740;2023-10-08T09:31:58;12.40;;;1.55;;
14603;SDS011;7388;51.078;13.740;2023-10-08T09:34:28;14.45;;;2.17;;
14603;SDS011;7388;51.078;13.740;2023-10-08T09:36:55;11.73;;;2.08;;
14603;SDS011;7388;51.078;13.740;2023-10-08T09:39:21;12.27;;;2.05;;
14603;SDS011;7388;51.078;13.740;2023-10-08T09:41:57;10.48;;;1.80;;
14603;SDS011;7388;51.078;13.740;2023-10-08T09:44:24;14.02;;;2.53;;
14603;SDS011;7388;51.078;13.740;2023-10-08T09:46:54;10.88;;;1.75;;
14603;SDS011;7388;51.078;13.740;2023-10-08T09:49:36;11.45;;;2.53;;
14603;SDS011;7388;51.078;13.740;2023-10-08T09:52:19;12.98;;;1.88;;
14603;SDS011;7388;51.078;13.740;2023-10-08T09:54:50;13.27;;;1.55;;
14603;SDS011;7388;51.078;13.740;2023-10-08T09:57:19;7.90;;;1.30;;
14603;SDS011;7388;51.078;13.740;2023-10-08T09:59:49;8.13;;;1.45;;
14603;SDS011;7388;51.078;13.740;2023-10-08T10:02:16;12.30;;;2.22;;
14603;SDS011;7388;51.078;13.740;2023-10-08T10:04:43;13.02;;;1.75;;
14603;SDS011;7388;51.078;13.740;2023-10-08T10:07:10;12.15;;;1.50;;
14603;SDS011;7388;51.078;13.740;2023-10-08T10:09:38;13.32;;;1.77;;
14603;SDS011;7388;51.078;13.740;2023-10-08T10:12:08;12.02;;;1.65;;
14603;SDS011;7388;51.078;13.740;2023-10-08T10:14:43;13.82;;;2.42;;
14603;SDS011;7388;51.078;13.740;2023-10-08T10:17:14;16.20;;;2.05;;
14603;SDS011;7388;51.078;13.740;2023-10-08T10:22:28;15.60;;;1.95;;
14603;SDS011;7388;51.078;13.740;2023-10-08T10:24:56;11.43;;;1.27;;
14603;SDS011;7388;51.078;13.740;2023-10-08T10:27:22;18.60;;;2.70;;
14603;SDS011;7388;51.078;13.740;2023-10-08T10:29:49;14.50;;;2.67;;
14603;SDS011;7388;51.078;13.740;2023-10-08T10:32:16;17.08;;;2.40;;
14603;SDS011;7388;51.078;13.740;2023-10-08T10:34:44;15.90;;;2.05;;
14603;SDS011;7388;51.078;13.740;2023-10-08T10:37:12;14.63;;;1.80;;
14603;SDS011;7388;51.078;13.740;2023-10-08T10:39:56;15.85;;;2.53;;
14603;SDS011;7388;51.078;13.740;2023-10-08T10:42:25;14.27;;;1.50;;
14603;SDS011;7388;51.078;13.740;2023-10-08T10:44:53;17.15;;;1.90;;
14603;SDS011;7388;51.078;13.740;2023-10-08T10:47:20;14.90;;;2.70;;
14603;SDS011;7388;51.078;13.740;2023-10-08T10:49:50;12.65;;;1.38;;
14603;SDS011;7388;51.078;13.740;2023-10-08T10:52:26;18.85;;;1.98;;
14603;SDS011;7388;51.078;13.740;2023-10-08T10:55:09;2.92;;;1.40;;
14603;SDS011;7388;51.078;13.740;2023-10-08T10:57:52;1.00;;;0.55;;
14603;SDS011;7388;51.078;13.740;2023-10-08T11:00:29;6.03;;;1.08;;
14603;SDS011;7388;51.078;13.740;2023-10-08T11:03:00;1.70;;;0.90;;
14603;SDS011;7388;51.078;13.740;2023-10-08T11:05:41;1.25;;;0.77;;
14603;SDS011;7388;51.078;13.740;2023-10-08T11:08:13;1.45;;;0.80;;
14603;SDS011;7388;51.078;13.740;2023-10-08T11:10:41;1.33;;;0.73;;
14603;SDS011;7388;51.078;13.740;2023-10-08T11:13:17;4.30;;;1.70;;
14603;SDS011;7388;51.078;13.740;2023-10-08T11:15:53;1.67;;;1.00;;
14603;SDS011;7388;51.078;13.740;2023-10-08T11:18:20;1.00;;;0.60;;
14603;SDS011;7388;51.078;13.740;2023-10-08T11:20:48;1.40;;;1.00;;
14603;SDS011;7388;51.078;13.740;2023-10-08T11:26:04;1.42;;;0.85;;
14603;SDS011;7388;51.078;13.740;2023-10-08T11:28:31;1.10;;;0.70;;
14603;SDS011;7388;51.078;13.740;2023-10-08T11:31:07;1.10;;;0.60;;
14603;SDS011;7388;51.078;13.740;2023-10-08T11:33:39;1.77;;;1.40;;
14603;SDS011;7388;51.078;13.740;2023-10-08T11:36:07;3.15;;;1.05;;
14603;SDS011;7388;51.078;13.740;2023-10-08T11:38:43;1.45;;;1.20;;
14603;SDS011;7388;51.078;13.740;2023-10-08T11:41:14;1.40;;;1.05;;
14603;SDS011;7388;51.078;13.740;2023-10-08T11:43:56;1.60;;;1.40;;
14603;SDS011;7388;51.078;13.740;2023-10-08T11:46:23;1.92;;;1.63;;
14603;SDS011;7388;51.078;13.740;2023-10-08T11:49:14;1.55;;;0.93;;
14603;SDS011;7388;51.078;13.740;2023-10-08T11:51:50;2.42;;;1.20;;
14603;SDS011;7388;51.078;13.740;2023-10-08T11:54:20;4.20;;;1.77;;
14603;SDS011;7388;51.078;13.740;2023-10-08T11:56:48;3.45;;;1.45;;
14603;SDS011;7388;51.078;13.740;2023-10-08T11:59:14;5.53;;;1.67;;
14603;SDS011;7388;51.078;13.740;2023-10-08T12:01:43;4.85;;;1.60;;
14603;SDS011;7388;51.078;13.740;2023-10-08T12:04:11;7.80;;;1.53;;
14603;SDS011;7388;51.078;13.740;2023-10-08T12:06:41;2.10;;;0.77;;
14603;SDS011;7388;51.078;13.740;2023-10-08T12:09:17;1.20;;;0.67;;
14603;SDS011;7388;51.078;13.740;2023-10-08T12:11:47;1.53;;;1.00;;
14603;SDS011;7388;51.078;13.740;2023-10-08T12:14:16;3.63;;;1.40;;
14603;SDS011;7388;51.078;13.740;2023-10-08T12:16:43;8.70;;;2.13;;
14603;SDS011;7388;51.078;13.740;2023-10-08T12:19:10;2.63;;;1.37;;
14603;SDS011;7388;51.078;13.740;2023-10-08T12:21:43;6.22;;;1.88;;
14603;SDS011;7388;51.078;13.740;2023-10-08T12:24:13;3.93;;;1.40;;
14603;SDS011;7388;51.078;13.740;2023-10-08T12:26:39;3.38;;;1.75;;
14603;SDS011;7388;51.078;13.740;2023-10-08T12:29:14;3.33;;;1.50;;
14603;SDS011;7388;51.078;13.740;2023-10-08T12:31:42;5.73;;;1.53;;
14603;SDS011;7388;51.078;13.740;2023-10-08T12:34:13;6.20;;;1.67;;
14603;SDS011;7388;51.078;13.740;2023-10-08T12:36:39;5.83;;;2.10;;
14603;SDS011;7388;51.078;13.740;2023-10-08T12:39:05;6.30;;;1.77;;
14603;SDS011;7388;51.078;13.740;2023-10-08T12:41:43;5.88;;;1.60;;
14603;SDS011;7388;51.078;13.740;2023-10-08T12:44:10;4.43;;;1.70;;
14603;SDS011;7388;51.078;13.740;2023-10-08T12:46:36;5.50;;;2.13;;
14603;SDS011;7388;51.078;13.740;2023-10-08T12:49:02;5.07;;;1.85;;
14603;SDS011;7388;51.078;13.740;2023-10-08T12:51:29;5.63;;;1.77;;
14603;SDS011;7388;51.078;13.740;2023-10-08T12:53:59;4.65;;;1.38;;
14603;SDS011;7388;51.078;13.740;2023-10-08T12:56:45;5.18;;;1.50;;
14603;SDS011;7388;51.078;13.740;2023-10-08T12:59:13;6.10;;;1.55;;
14603;SDS011;7388;51.078;13.740;2023-10-08T13:01:49;4.95;;;1.58;;
14603;SDS011;7388;51.078;13.740;2023-10-08T13:04:22;6.38;;;1.70;;
14603;SDS011;7388;51.078;13.740;2023-10-08T13:06:57;5.50;;;1.80;;
14603;SDS011;7388;51.078;13.740;2023-10-08T13:09:26;9.30;;;1.92;;
14603;SDS011;7388;51.078;13.740;2023-10-08T13:11:52;8.00;;;1.93;;
14603;SDS011;7388;51.078;13.740;2023-10-08T13:14:18;7.65;;;1.80;;
14603;SDS011;7388;51.078;13.740;2023-10-08T13:16:44;4.20;;;1.63;;
14603;SDS011;7388;51.078;13.740;2023-10-08T13:19:10;5.15;;;1.83;;
14603;SDS011;7388;51.078;13.740;2023-10-08T13:21:36;4.60;;;1.33;;
14603;SDS011;7388;51.078;13.740;2023-10-08T13:24:02;4.83;;;1.53;;
14603;SDS011;7388;51.078;13.740;2023-10-08T13:26:30;4.88;;;1.50;;
14603;SDS011;7388;51.078;13.740;2023-10-08T13:28:59;5.20;;;1.87;;
14603;SDS011;7388;51.078;13.740;2023-10-08T13:31:28;3.28;;;1.27;;
14603;SDS011;7388;51.078;13.740;2023-10-08T13:33:54;2.60;;;1.10;;
14603;SDS011;7388;51.078;13.740;2023-10-08T13:36:27;4.32;;;1.73;;
14603;SDS011;7388;51.078;13.740;2023-10-08T13:38:54;5.18;;;1.45;;
14603;SDS011;7388;51.078;13.740;2023-10-08T13:41:20;6.85;;;1.80;;
14603;SDS011;7388;51.078;13.740;2023-10-08T13:43:49;5.47;;;2.10;;
14603;SDS011;7388;51.078;13.740;2023-10-08T13:46:19;6.30;;;1.35;;
14603;SDS011;7388;51.078;13.740;2023-10-08T13:48:48;6.40;;;1.42;;
14603;SDS011;7388;51.078;13.740;2023-10-08T13:51:17;7.25;;;1.95;;
14603;SDS011;7388;51.078;13.740;2023-10-08T13:53:51;8.75;;;1.90;;
14603;SDS011;7388;51.078;13.740;2023-10-08T13:56:18;8.57;;;1.63;;
14603;SDS011;7388;51.078;13.740;2023-10-08T13:58:51;6.82;;;1.60;;
14603;SDS011;7388;51.078;13.740;2023-10-08T14:01:25;5.32;;;1.48;;
14603;SDS011;7388;51.078;13.740;2023-10-08T14:03:51;7.78;;;1.83;;
14603;SDS011;7388;51.078;13.740;2023-10-08T14:06:29;9.52;;;1.83;;
14603;SDS011;7388;51.078;13.740;2023-10-08T14:08:55;5.97;;;1.20;;
14603;SDS011;7388;51.078;13.740;2023-10-08T14:11:21;6.70;;;1.47;;
14603;SDS011;7388;51.078;13.740;2023-10-08T14:13:54;8.88;;;2.20;;
14603;SDS011;7388;51.078;13.740;2023-10-08T14:16:33;7.65;;;2.00;;
14603;SDS011;7388;51.078;13.740;2023-10-08T14:19:00;1.40;;;0.90;;
14603;SDS011;7388;51.078;13.740;2023-10-08T14:21:29;1.30;;;0.80;;
14603;SDS011;7388;51.078;13.740;2023-10-08T14:23:56;1.35;;;0.70;;
14603;SDS011;7388;51.078;13.740;2023-10-08T14:26:28;4.78;;;0.95;;
14603;SDS011;7388;51.078;13.740;2023-10-08T14:29:00;1.20;;;0.82;;
14603;SDS011;7388;51.078;13.740;2023-10-08T14:31:32;1.20;;;0.70;;
14603;SDS011;7388;51.078;13.740;2023-10-08T14:33:59;1.48;;;0.88;;
14603;SDS011;7388;51.078;13.740;2023-10-08T14:36:44;1.92;;;1.17;;
14603;SDS011;7388;51.078;13.740;2023-10-08T14:39:29;1.75;;;1.48;;
14603;SDS011;7388;51.078;13.740;2023-10-08T14:42:13;1.60;;;0.90;;
14603;SDS011;7388;51.078;13.740;2023-10-08T14:44:57;1.67;;;1.33;;
14603;SDS011;7388;51.078;13.740;2023-10-08T14:47:23;4.73;;;1.30;;
14603;SDS011;7388;51.078;13.740;2023-10-08T14:49:49;2.37;;;1.27;;
14603;SDS011;7388;51.078;13.740;2023-10-08T14:52:14;1.33;;;1.00;;
14603;SDS011;7388;51.078;13.740;2023-10-08T14:54:41;1.67;;;1.17;;
14603;SDS011;7388;51.078;13.740;2023-10-08T14:57:08;2.10;;;1.02;;
14603;SDS011;7388;51.078;13.740;2023-10-08T14:59:34;1.20;;;0.90;;
14603;SDS011;7388;51.078;13.740;2023-10-08T15:02:01;1.40;;;0.90;;
14603;SDS011;7388;51.078;13.740;2023-10-08T15:04:26;1.57;;;1.10;;
14603;SDS011;7388;51.078;13.740;2023-10-08T15:06:54;1.55;;;1.17;;
14603;SDS011;7388;51.078;13.740;2023-10-08T15:09:21;3.75;;;1.40;;
14603;SDS011;7388;51.078;13.740;2023-10-08T15:11:49;1.90;;;0.95;;